Terminal Aerodrome Forecast
Issued by NWS

Home | Current Version | Previous Version | Text Only | Print | Product List | Glossary On
Versions: 1 2 3 4 5 6 7 8 9 10 11 12 13 14 15 16 17 18 19 20 21 22 23 24 25 26 27 28 29 30 31 32 33 34 35 36 37 38 39 40 41 42 43 44 45 46 47 48 49 50
000
FTUS46 KOTX 271139
TAFCOE
TAF
KCOE 271139Z 2712/2812 18005KT P6SM OVC025
     FM271400 18005KT 3SM -SN OVC022
     FM271600 18004KT 1SM -SN BKN012 OVC020
     FM271900 18006KT 1/2SM SN FG OVC007
     FM280200 20005KT 2SM -SN BR OVC005
     FM280500 22006KT 6SM -SHSN BR OVC008
      AMD LTD TO CLD AND VIS=

USA.gov is the U.S. government's official web portal to all federal, state and local government web resources and services.